European Highlander — C6SN6 — position and weather

sailwx.info

Track history (hours):
 
Tides and Currents Weather Stations Pressure Air Temp Water Temp Dewpoint Dewpoint Depression Visibility Wind Speed Wind Dir Waves Ship Positions

European Highlander

Operator: P&O Irish Sea Ltd

Last reported at 2017-Aug-23 13:31 UTC. Time now 2017-Aug-23 13:37 UTC.
Position N 54°58' W 005°20'.

Length 161 m; draft 5.4 m.

Type: Passenger vessel. MMSI: 311404000.

Date/timePositionNaut miles runAvg speedWind from/ knotsBaromVisibWave heightAir tempDewpointWater temp
2017-Aug-23 13:31N 54°58' W 005°20'1019.0
2017-Aug-23 13:01N 54°54' W 005°36'815.5
2017-Aug-23 12:30N 54°51' W 005°48'0 0.1
2017-Aug-23 12:00N 54°51' W 005°48'0 0.0
2017-Aug-23 11:30N 54°51' W 005°48'510.2
2017-Aug-23 11:00N 54°53' W 005°40'917.5
2017-Aug-23 10:30N 54°58' W 005°27'917.9
2017-Aug-23 10:00N 55°01' W 005°13'713.0
2017-Aug-23 09:30N 54°58' W 005°02'1 1.7
2017-Aug-23 08:58N 54°58' W 005°01'0 0.0
2017-Aug-23 08:28N 54°58' W 005°01'5 8.5
2017-Aug-23 07:54N 55°02' W 005°06'616.4
2017-Aug-23 07:30N 54°59' W 005°17'918.8
2017-Aug-23 07:00N 54°55' W 005°32'1019.6
2017-Aug-23 06:31N 54°52' W 005°47'1 1.8
2017-Aug-23 05:58N 54°51' W 005°48'0 0.0
2017-Aug-23 05:25N 54°51' W 005°48'0 0.0
2017-Aug-23 04:59N 54°51' W 005°48'5 9.9
2017-Aug-23 04:30N 54°54' W 005°41'1019.5
2017-Aug-23 04:01N 54°59' W 005°27'816.6
2017-Aug-23 03:30N 55°02' W 005°13'714.7
2017-Aug-23 03:00N 54°58' W 005°02'1 1.8
2017-Aug-23 02:28N 54°58' W 005°01'0 0.0
2017-Aug-23 01:58N 54°58' W 005°01'0 0.0
2017-Aug-23 01:28N 54°58' W 005°01'0 0.0
2017-Aug-23 00:59N 54°58' W 005°01'5 9.2
2017-Aug-23 00:27N 55°02' W 005°06'818.4
2017-Aug-23 00:00N 54°59' W 005°20'1019.0
2017-Aug-22 23:28N 54°54' W 005°35'816.6
2017-Aug-22 23:00N 54°51' W 005°48'0 0.3
2017-Aug-22 22:28N 54°51' W 005°48'0 0.0
2017-Aug-22 21:58N 54°51' W 005°48'0 0.0
2017-Aug-22 21:28N 54°51' W 005°48'0 0.0
2017-Aug-22 21:00N 54°51' W 005°48'510.2
2017-Aug-22 20:30N 54°54' W 005°41'917.9
2017-Aug-22 20:00N 54°57' W 005°26'918.6
2017-Aug-22 19:30N 55°01' W 005°12'612.9
2017-Aug-22 19:00N 54°58' W 005°02'1 1.0
2017-Aug-22 18:28N 54°58' W 005°01'0 0.0
2017-Aug-22 17:55N 54°58' W 005°01'0 0.1
2017-Aug-22 17:30N 54°58' W 005°01'510.3
2017-Aug-22 17:01N 55°01' W 005°07'816.7
2017-Aug-22 16:30N 54°58' W 005°21'917.2
2017-Aug-22 16:00N 54°55' W 005°35'816.6
2017-Aug-22 15:30N 54°51' W 005°48'1 1.2
2017-Aug-22 14:54N 54°51' W 005°48'0 0.0
2017-Aug-22 14:30N 54°51' W 005°48'4 7.3
2017-Aug-22 14:01N 54°53' W 005°43'917.6
2017-Aug-22 13:31N 54°57' W 005°30'816.9
2017-Aug-22 13:01N 55°01' W 005°16'814.0
2017-Aug-22 12:27N 54°59' W 005°03'2 3.1
2017-Aug-22 11:56N 54°58' W 005°01'0 0.0
2017-Aug-22 11:30N 54°58' W 005°01'510.4
2017-Aug-22 11:00N 55°02' W 005°07'917.3
2017-Aug-22 10:30N 54°58' W 005°20'917.4
2017-Aug-22 10:00N 54°54' W 005°34'816.5
2017-Aug-22 09:30N 54°51' W 005°48'0 0.6
2017-Aug-22 08:58N 54°51' W 005°48'0 0.0
2017-Aug-22 08:30N 54°51' W 005°48'611.3
2017-Aug-22 08:01N 54°55' W 005°41'917.1
2017-Aug-22 07:30N 54°58' W 005°27'918.1
2017-Aug-22 07:01N 55°02' W 005°13'713.9
2017-Aug-22 06:30N 54°58' W 005°02'1 1.9
2017-Aug-22 06:00N 54°58' W 005°01'0 0.0
2017-Aug-22 05:30N 54°58' W 005°01'0 0.0
2017-Aug-22 05:00N 54°58' W 005°01'5 9.7
2017-Aug-22 04:28N 55°02' W 005°07'715.8
2017-Aug-22 04:00N 54°59' W 005°19'918.9
2017-Aug-22 03:30N 54°55' W 005°33'918.2
2017-Aug-22 03:00N 54°51' W 005°48'0 0.7
2017-Aug-22 02:30N 54°51' W 005°48'0 0.0
2017-Aug-22 02:00N 54°51' W 005°48'0 0.0
2017-Aug-22 01:30N 54°51' W 005°48'0 0.0
2017-Aug-22 01:00N 54°51' W 005°48'3 5.8
2017-Aug-22 00:30N 54°53' W 005°44'918.1
2017-Aug-22 00:00N 54°57' W 005°30'817.0
2017-Aug-21 23:30N 55°00' W 005°17'814.5
2017-Aug-21 22:56N 54°59' W 005°03'2 3.5
2017-Aug-21 22:25N 54°58' W 005°01'0 0.0
2017-Aug-21 21:58N 54°58' W 005°01'0 0.0
2017-Aug-21 21:28N 54°58' W 005°01'0 0.1
2017-Aug-21 20:51N 54°58' W 005°01'513.5
2017-Aug-21 20:29N 55°02' W 005°06'817.1
2017-Aug-21 20:00N 54°58' W 005°20'917.4
2017-Aug-21 19:30N 54°54' W 005°33'917.5
2017-Aug-21 19:00N 54°52' W 005°48'1 0.9
2017-Aug-21 18:12N 54°51' W 005°48'0 0.0
2017-Aug-21 18:00N 54°51' W 005°48'0 0.0
2017-Aug-21 17:30N 54°51' W 005°48'5 9.4
2017-Aug-21 17:00N 54°53' W 005°41'817.0
2017-Aug-21 16:30N 54°57' W 005°28'816.7
2017-Aug-21 16:00N 55°01' W 005°15'714.5
2017-Aug-21 15:30N 54°59' W 005°03'1 2.9
2017-Aug-21 15:00N 54°58' W 005°01'0 0.0
2017-Aug-21 14:30N 54°58' W 005°01'5 8.8
2017-Aug-21 13:54N 55°02' W 005°07'820.6
2017-Aug-21 13:30N 54°58' W 005°20'1019.8
2017-Aug-21 13:00N 54°54' W 005°36'815.1
2017-Aug-21 12:31N 54°51' W 005°48'0 0.2
2017-Aug-21 12:00N 54°51' W 005°48'0 0.0
2017-Aug-21 11:30N 54°51' W 005°48'510.5
2017-Aug-21 11:00N 54°54' W 005°40'918.2
2017-Aug-21 10:30N 54°58' W 005°26'918.2
2017-Aug-21 10:00N 55°01' W 005°12'713.7
2017-Aug-21 09:30N 54°58' W 005°01'0 0.0
2017-Aug-21 08:38N 54°58' W 005°01'0 0.0
2017-Aug-21 08:30N 54°58' W 005°01'510.2
2017-Aug-21 08:00N 55°02' W 005°07'918.1
2017-Aug-21 07:30N 54°58' W 005°21'917.2
2017-Aug-21 07:00N 54°55' W 005°35'816.3
2017-Aug-21 06:30N 54°51' W 005°48'0 0.4
2017-Aug-21 05:59N 54°51' W 005°48'0 0.0
2017-Aug-21 05:30N 54°51' W 005°48'0 0.0
2017-Aug-21 05:00N 54°51' W 005°48'4 7.6
2017-Aug-21 04:30N 54°53' W 005°43'917.0
2017-Aug-21 04:00N 54°57' W 005°30'816.7
2017-Aug-21 03:30N 55°01' W 005°17'814.4
2017-Aug-21 02:58N 54°59' W 005°03'2 4.6
2017-Aug-21 02:29N 54°58' W 005°01'0 0.0
2017-Aug-21 01:59N 54°58' W 005°01'0 0.0
2017-Aug-21 01:29N 54°58' W 005°01'0 0.0
2017-Aug-21 00:53N 54°58' W 005°01'0 0.0
2017-Aug-21 00:20N 54°58' W 005°01'0 0.0
2017-Aug-21 00:00N 54°58' W 005°01'5 9.7
2017-Aug-20 23:30N 55°02' W 005°06'1019.8
2017-Aug-20 23:00N 54°57' W 005°22'1019.4
2017-Aug-20 22:30N 54°54' W 005°38'713.3
2017-Aug-20 22:00N 54°51' W 005°48'0 0.1
2017-Aug-20 21:30N 54°51' W 005°48'0 0.0
2017-Aug-20 21:00N 54°51' W 005°48'510.4
2017-Aug-20 20:30N 54°54' W 005°41'816.2
2017-Aug-20 20:00N 54°58' W 005°29'816.4
2017-Aug-20 19:30N 54°60' W 005°15'713.1
2017-Aug-20 19:00N 54°59' W 005°03'2 3.8
2017-Aug-20 18:28N 54°58' W 005°01'0 0.0
2017-Aug-20 17:55N 54°58' W 005°01'0 0.0
2017-Aug-20 17:30N 54°58' W 005°01'510.1
2017-Aug-20 16:58N 55°02' W 005°07'817.0
2017-Aug-20 16:31N 54°59' W 005°20'1020.2
2017-Aug-20 16:01N 54°55' W 005°36'815.2
2017-Aug-20 15:30N 54°51' W 005°48'0 0.1
2017-Aug-20 14:59N 54°51' W 005°48'0 0.0
2017-Aug-20 14:29N 54°51' W 005°48'5 9.5
2017-Aug-20 14:01N 54°53' W 005°41'917.1
2017-Aug-20 13:30N 54°58' W 005°28'816.2
2017-Aug-20 13:00N 55°01' W 005°15'713.9
2017-Aug-20 12:29N 54°59' W 005°03'2 2.7
2017-Aug-20 11:46N 54°58' W 005°01'0 0.0
2017-Aug-20 11:26N 54°58' W 005°01'3 8.1
2017-Aug-20 11:00N 55°01' W 005°04'918.4
2017-Aug-20 10:30N 54°58' W 005°20'1020.3
2017-Aug-20 10:00N 54°54' W 005°36'815.0
2017-Aug-20 09:30N 54°51' W 005°48'0 0.1
2017-Aug-20 09:00N 54°51' W 005°48'0 0.0
2017-Aug-20 08:30N 54°51' W 005°48'4 8.0
2017-Aug-20 08:00N 54°53' W 005°43'1019.6
2017-Aug-20 07:31N 54°58' W 005°27'1019.8
2017-Aug-20 07:01N 55°01' W 005°11'713.2
2017-Aug-20 06:30N 54°58' W 005°01'0 0.3
2017-Aug-20 05:59N 54°58' W 005°01'0 0.0
2017-Aug-20 05:29N 54°58' W 005°01'0 0.0
2017-Aug-20 04:59N 54°58' W 005°01'0 0.0
2017-Aug-20 04:26N 54°58' W 005°01'0 0.0
2017-Aug-20 03:56N 54°58' W 005°01'0 0.0
2017-Aug-20 03:29N 54°58' W 005°01'0 0.0
2017-Aug-20 02:59N 54°58' W 005°01'0 0.0
2017-Aug-20 02:29N 54°58' W 005°01'0 0.0
2017-Aug-20 01:50N 54°58' W 005°01'0 0.0
2017-Aug-20 01:29N 54°58' W 005°01'0 0.0
2017-Aug-20 00:59N 54°58' W 005°01'0 0.0
2017-Aug-20 00:26N 54°58' W 005°01'0 0.0
2017-Aug-19 23:59N 54°58' W 005°01'0 0.0
2017-Aug-19 23:29N 54°58' W 005°01'0 0.0
2017-Aug-19 22:56N 54°58' W 005°01'0 0.0
2017-Aug-19 22:29N 54°58' W 005°01'0 0.0
2017-Aug-19 21:59N 54°58' W 005°01'0 0.0
2017-Aug-19 21:14N 54°58' W 005°01'0 0.0
2017-Aug-19 20:59N 54°58' W 005°01'612.3
2017-Aug-19 20:31N 55°01' W 005°09'1020.0
2017-Aug-19 20:00N 54°56' W 005°24'1121.4
2017-Aug-19 19:31N 54°53' W 005°41'4 8.4
2017-Aug-19 19:01N 54°51' W 005°48'0 0.0
2017-Aug-19 18:30N 54°51' W 005°48'0 0.0
2017-Aug-19 17:54N 54°51' W 005°48'0 0.0
2017-Aug-19 17:30N 54°51' W 005°48'2 4.5
2017-Aug-19 17:00N 54°52' W 005°45'1019.3
2017-Aug-19 16:30N 54°57' W 005°30'1020.9
2017-Aug-19 16:00N 55°01' W 005°13'713.6
2017-Aug-19 15:30N 54°59' W 005°02'1 2.1
2017-Aug-19 15:00N 54°58' W 005°01'5 5.0
2017-Aug-19 14:00N 55°01' W 005°07'917.6
2017-Aug-19 13:30N 54°58' W 005°21'917.8
2017-Aug-19 13:01N 54°55' W 005°35'816.1
2017-Aug-19 12:30N 54°51' W 005°48'0 0.4
2017-Aug-19 12:00N 54°51' W 005°48'0 0.0
2017-Aug-19 11:30N 54°51' W 005°48'3 6.6
2017-Aug-19 11:00N 54°53' W 005°43'1020.4
2017-Aug-19 10:30N 54°57' W 005°28'1019.5
2017-Aug-19 10:00N 55°01' W 005°12'713.3
2017-Aug-19 09:30N 54°58' W 005°02'1 1.1
2017-Aug-19 08:57N 54°58' W 005°01'0 0.0
2017-Aug-19 08:31N 54°58' W 005°01'5 9.4
2017-Aug-19 07:59N 55°02' W 005°06'816.7
2017-Aug-19 07:30N 54°58' W 005°19'816.5
2017-Aug-19 07:00N 54°54' W 005°31'917.9
2017-Aug-19 06:30N 54°52' W 005°46'1 2.8
2017-Aug-19 05:59N 54°51' W 005°48'0 0.0
2017-Aug-19 05:29N 54°51' W 005°48'0 0.0
2017-Aug-19 05:00N 54°51' W 005°48'510.9
2017-Aug-19 04:30N 54°54' W 005°40'1019.2
2017-Aug-19 04:00N 54°58' W 005°25'1019.6
2017-Aug-19 03:30N 55°02' W 005°09'612.3
2017-Aug-19 03:00N 54°58' W 005°01'0 0.0
2017-Aug-19 02:30N 54°58' W 005°01'0 0.0
2017-Aug-19 02:00N 54°58' W 005°01'0 0.0
2017-Aug-19 01:30N 54°58' W 005°01'0 0.0
2017-Aug-19 01:00N 54°58' W 005°01'5 7.7
2017-Aug-19 00:20N 55°01' W 005°07'720.4
2017-Aug-19 00:01N 54°59' W 005°18'1020.3
2017-Aug-18 23:30N 54°55' W 005°34'917.8
2017-Aug-18 23:00N 54°51' W 005°48'0 0.2
2017-Aug-18 22:23N 54°51' W 005°48'0 0.0
2017-Aug-18 21:59N 54°51' W 005°48'0 0.0
2017-Aug-18 21:29N 54°51' W 005°48'0 0.0
2017-Aug-18 20:59N 54°51' W 005°48'5 9.5
2017-Aug-18 20:30N 54°53' W 005°41'917.1
2017-Aug-18 20:00N 54°57' W 005°28'816.7
2017-Aug-18 19:30N 55°00' W 005°15'713.0
2017-Aug-18 18:59N 54°59' W 005°03'2 3.8
2017-Aug-18 18:29N 54°58' W 005°01'0 0.0
2017-Aug-18 18:00N 54°58' W 005°01'0 0.0
2017-Aug-18 17:30N 54°58' W 005°01'5 9.8
2017-Aug-18 16:59N 55°01' W 005°07'817.1
2017-Aug-18 16:30N 54°58' W 005°20'918.5
2017-Aug-18 16:01N 54°55' W 005°35'816.8
2017-Aug-18 15:31N 54°51' W 005°48'0 0.3
2017-Aug-18 15:00N 54°51' W 005°48'6 6.3
2017-Aug-18 14:01N 54°54' W 005°39'917.2
2017-Aug-18 13:31N 54°58' W 005°25'816.6
2017-Aug-18 13:01N 55°01' W 005°12'713.3
2017-Aug-18 12:29N 54°58' W 005°01'0 0.3
2017-Aug-18 11:54N 54°58' W 005°01'0 0.0
2017-Aug-18 11:30N 54°58' W 005°01'5 9.1
2017-Aug-18 10:57N 55°02' W 005°06'818.0
2017-Aug-18 10:30N 54°59' W 005°19'917.7
2017-Aug-18 10:00N 54°55' W 005°33'917.3
2017-Aug-18 09:30N 54°52' W 005°47'1 1.6
2017-Aug-18 08:57N 54°51' W 005°48'0 0.0
2017-Aug-18 08:27N 54°51' W 005°48'4 8.0
2017-Aug-18 08:01N 54°53' W 005°43'917.3
2017-Aug-18 07:30N 54°57' W 005°29'917.1
2017-Aug-18 07:00N 55°00' W 005°16'713.6
2017-Aug-18 06:27N 54°59' W 005°03'2 3.8
2017-Aug-18 06:00N 54°58' W 005°01'0 0.0
2017-Aug-18 05:30N 54°58' W 005°01'0 0.0
2017-Aug-18 05:00N 54°58' W 005°01'5 8.1
2017-Aug-18 04:23N 55°02' W 005°06'616.9
2017-Aug-18 04:01N 54°59' W 005°17'918.2
2017-Aug-18 03:31N 54°55' W 005°31'918.6
2017-Aug-18 03:00N 54°52' W 005°47'1 2.6
2017-Aug-18 02:27N 54°51' W 005°48'0 0.0
2017-Aug-18 02:00N 54°51' W 005°48'0 0.0
2017-Aug-18 01:30N 54°51' W 005°48'0 0.0
2017-Aug-18 01:01N 54°51' W 005°48'611.3
2017-Aug-18 00:31N 54°54' W 005°40'816.8
2017-Aug-18 00:01N 54°58' W 005°27'816.7
2017-Aug-17 23:31N 55°01' W 005°13'714.3
2017-Aug-17 23:01N 54°58' W 005°02'1 1.5
2017-Aug-17 22:26N 54°58' W 005°01'0 0.0
2017-Aug-17 21:56N 54°58' W 005°01'0 0.0
2017-Aug-17 21:26N 54°58' W 005°01'0 0.0
2017-Aug-17 20:55N 54°58' W 005°01'5 9.9
2017-Aug-17 20:25N 55°02' W 005°06'818.7
2017-Aug-17 20:00N 54°60' W 005°19'1019.8
2017-Aug-17 19:30N 54°55' W 005°35'916.2
2017-Aug-17 18:59N 54°51' W 005°48'0 0.4
2017-Aug-17 18:30N 54°51' W 005°48'0 0.0
2017-Aug-17 18:00N 54°51' W 005°48'0 0.0
2017-Aug-17 17:30N 54°51' W 005°48'611.9
2017-Aug-17 17:00N 54°54' W 005°39'1019.9
2017-Aug-17 16:30N 54°58' W 005°24'1020.2
2017-Aug-17 16:00N 55°02' W 005°07'510.2
2017-Aug-17 15:30N 54°58' W 005°01'0 0.0
2017-Aug-17 15:00N 54°58' W 005°01'0 0.0
2017-Aug-17 14:30N 54°58' W 005°01'4 7.6
2017-Aug-17 14:01N 55°01' W 005°05'918.4
2017-Aug-17 13:31N 54°58' W 005°20'1020.7
2017-Aug-17 13:01N 54°54' W 005°36'714.4
2017-Aug-17 12:30N 54°51' W 005°48'0 0.0
2017-Aug-17 11:53N 54°51' W 005°48'0 0.0
2017-Aug-17 11:30N 54°51' W 005°48'510.8
2017-Aug-17 11:00N 54°54' W 005°40'917.7
2017-Aug-17 10:30N 54°58' W 005°26'917.0
2017-Aug-17 10:00N 55°01' W 005°12'713.9
2017-Aug-17 09:30N 54°58' W 005°02'1 0.9
2017-Aug-17 08:49N 54°58' W 005°01'0 0.0
2017-Aug-17 08:30N 54°58' W 005°01'5 9.5
2017-Aug-17 07:59N 55°02' W 005°06'817.6
2017-Aug-17 07:30N 54°58' W 005°20'917.1
2017-Aug-17 07:00N 54°54' W 005°33'917.3
2017-Aug-17 06:31N 54°52' W 005°47'1 1.9
2017-Aug-17 05:59N 54°51' W 005°48'0 0.0
2017-Aug-17 05:29N 54°51' W 005°48'0 0.0
2017-Aug-17 05:01N 54°51' W 005°48'612.4
2017-Aug-17 04:30N 54°54' W 005°39'816.9
2017-Aug-17 04:00N 54°58' W 005°25'917.5
2017-Aug-17 03:30N 55°01' W 005°11'713.2
2017-Aug-17 03:00N 54°58' W 005°01'0 0.7
2017-Aug-17 02:30N 54°58' W 005°01'0 0.0
2017-Aug-17 02:00N 54°58' W 005°01'0 0.0
2017-Aug-17 01:30N 54°58' W 005°01'0 0.0
2017-Aug-17 01:00N 54°58' W 005°01'5 7.7
2017-Aug-17 00:22N 55°01' W 005°06'617.5
2017-Aug-17 00:00N 54°59' W 005°16'1020.0
2017-Aug-16 23:30N 54°55' W 005°32'919.1
2017-Aug-16 23:01N 54°52' W 005°48'1 1.4
2017-Aug-16 22:30N 54°51' W 005°48'0 0.0
2017-Aug-16 22:00N 54°51' W 005°48'0 0.0
2017-Aug-16 21:30N 54°51' W 005°48'0 0.0
2017-Aug-16 21:00N 54°51' W 005°48'4 8.5
2017-Aug-16 20:30N 54°53' W 005°42'1019.6
2017-Aug-16 20:01N 54°58' W 005°27'918.5
2017-Aug-16 19:31N 55°01' W 005°12'713.0
2017-Aug-16 19:00N 54°58' W 005°02'1 1.6
2017-Aug-16 18:28N 54°58' W 005°01'0 0.0
2017-Aug-16 17:55N 54°58' W 005°01'0 0.0
2017-Aug-16 17:30N 54°58' W 005°01'5 9.9
2017-Aug-16 17:00N 55°02' W 005°06'1019.7
2017-Aug-16 16:30N 54°57' W 005°21'1019.8
2017-Aug-16 16:00N 54°54' W 005°37'713.3
2017-Aug-16 15:30N 54°51' W 005°48'0 0.0
2017-Aug-16 14:53N 54°51' W 005°48'0 0.0
2017-Aug-16 14:23N 54°51' W 005°48'3 7.8
2017-Aug-16 14:00N 54°53' W 005°44'1019.2
2017-Aug-16 13:31N 54°57' W 005°29'1019.5
2017-Aug-16 13:00N 55°01' W 005°13'713.9
2017-Aug-16 12:30N 54°58' W 005°02'1 1.8
2017-Aug-16 12:00N 54°58' W 005°01'0 0.0
2017-Aug-16 11:30N 54°58' W 005°01'5 8.7
2017-Aug-16 10:56N 55°02' W 005°06'921.2
2017-Aug-16 10:30N 54°58' W 005°21'1020.6
2017-Aug-16 10:00N 54°53' W 005°37'713.4
2017-Aug-16 09:30N 54°51' W 005°48'0 0.0
2017-Aug-16 09:00N 54°51' W 005°48'0 0.0
2017-Aug-16 08:30N 54°51' W 005°48'4 8.2
2017-Aug-16 08:01N 54°53' W 005°42'917.5
2017-Aug-16 07:30N 54°57' W 005°29'917.2
2017-Aug-16 07:01N 55°01' W 005°15'714.1
2017-Aug-16 06:31N 54°59' W 005°03'2 3.5
2017-Aug-16 05:58N 54°58' W 005°01'0 0.0
2017-Aug-16 05:28N 54°58' W 005°01'0 0.0
2017-Aug-16 05:01N 54°58' W 005°01'5 9.8
2017-Aug-16 04:30N 55°02' W 005°06'815.6
2017-Aug-16 04:01N 54°59' W 005°19'917.5
2017-Aug-16 03:31N 54°55' W 005°32'917.9
2017-Aug-16 03:00N 54°52' W 005°47'1 2.2
2017-Aug-16 02:29N 54°51' W 005°48'0 0.0
2017-Aug-16 01:59N 54°51' W 005°48'0 0.0
2017-Aug-16 01:29N 54°51' W 005°48'0 0.0
2017-Aug-16 01:00N 54°51' W 005°48'5 9.4
2017-Aug-16 00:30N 54°53' W 005°41'816.7
2017-Aug-16 00:00N 54°57' W 005°28'816.7
2017-Aug-15 23:30N 55°01' W 005°15'713.9
2017-Aug-15 23:00N 54°59' W 005°03'2 3.8
2017-Aug-15 22:28N 54°58' W 005°01'0 0.0
2017-Aug-15 21:58N 54°58' W 005°01'0 0.0
2017-Aug-15 21:28N 54°58' W 005°01'0 0.0
2017-Aug-15 21:00N 54°58' W 005°01'5 9.4
2017-Aug-15 20:28N 55°02' W 005°07'817.5
2017-Aug-15 20:00N 54°59' W 005°20'917.4
2017-Aug-15 19:31N 54°55' W 005°33'816.8
2017-Aug-15 19:00N 54°52' W 005°47'1 2.3
2017-Aug-15 18:30N 54°51' W 005°48'0 0.0
2017-Aug-15 18:00N 54°51' W 005°48'0 0.0
2017-Aug-15 17:30N 54°51' W 005°48'4 7.6
2017-Aug-15 17:01N 54°53' W 005°43'918.3
2017-Aug-15 16:31N 54°57' W 005°28'918.3
2017-Aug-15 16:01N 55°01' W 005°14'713.9
2017-Aug-15 15:31N 54°59' W 005°02'1 1.9
2017-Aug-15 14:55N 54°58' W 005°01'0 0.0
2017-Aug-15 14:25N 54°58' W 005°01'510.0
2017-Aug-15 13:55N 55°02' W 005°06'819.3
2017-Aug-15 13:30N 54°58' W 005°19'1020.7
2017-Aug-15 13:00N 54°54' W 005°35'815.6
2017-Aug-15 12:31N 54°51' W 005°48'0 0.2
2017-Aug-15 11:56N 54°51' W 005°48'0 0.0
2017-Aug-15 11:30N 54°51' W 005°48'611.3
2017-Aug-15 11:00N 54°54' W 005°40'917.2
2017-Aug-15 10:30N 54°58' W 005°26'917.4
2017-Aug-15 10:00N 55°01' W 005°12'713.5
2017-Aug-15 09:30N 54°58' W 005°02'1 1.5
2017-Aug-15 09:00N 54°58' W 005°01'0 0.0
2017-Aug-15 08:30N 54°58' W 005°01'5 8.1
2017-Aug-15 07:53N 55°02' W 005°07'717.9
2017-Aug-15 07:30N 54°59' W 005°18'918.0
2017-Aug-15 07:00N 54°56' W 005°32'917.4
2017-Aug-15 06:29N 54°52' W 005°47'2 3.1
2017-Aug-15 06:00N 54°51' W 005°48'0 0.0
2017-Aug-15 05:30N 54°51' W 005°48'0 0.0
2017-Aug-15 05:01N 54°51' W 005°48'612.0
2017-Aug-15 04:30N 54°54' W 005°39'1020.2
2017-Aug-15 04:00N 54°59' W 005°24'918.6
2017-Aug-15 03:30N 55°02' W 005°08'610.0
2017-Aug-15 02:56N 54°58' W 005°01'0 0.0
2017-Aug-15 02:20N 54°58' W 005°01'0 0.0
2017-Aug-15 01:50N 54°58' W 005°01'0 0.0
2017-Aug-15 01:29N 54°58' W 005°01'0 0.0
2017-Aug-15 00:59N 54°58' W 005°01'5 9.0
2017-Aug-15 00:26N 55°02' W 005°06'819.1
2017-Aug-15 00:00N 54°59' W 005°20'1020.3
2017-Aug-14 23:30N 54°54' W 005°36'813.3
2017-Aug-14 22:56N 54°51' W 005°48'0 0.0
2017-Aug-14 22:29N 54°51' W 005°48'0 0.0
2017-Aug-14 21:56N 54°51' W 005°48'0 0.0
2017-Aug-14 21:29N 54°51' W 005°48'0 0.0
2017-Aug-14 20:59N 54°51' W 005°48'4 8.8
2017-Aug-14 20:31N 54°53' W 005°42'917.6
2017-Aug-14 20:01N 54°57' W 005°28'815.6
2017-Aug-14 19:31N 55°00' W 005°16'813.0
2017-Aug-14 18:56N 54°59' W 005°03'2 4.3
2017-Aug-14 18:30N 54°58' W 005°01'0 0.0
2017-Aug-14 18:00N 54°58' W 005°01'0 0.0
2017-Aug-14 17:30N 54°58' W 005°01'5 8.4
2017-Aug-14 16:55N 55°02' W 005°06'819.9
2017-Aug-14 16:30N 54°60' W 005°20'1019.5
2017-Aug-14 16:01N 54°56' W 005°36'816.7
2017-Aug-14 15:30N 54°51' W 005°48'0 0.4
2017-Aug-14 14:55N 54°51' W 005°48'0 0.0
2017-Aug-14 14:25N 54°51' W 005°48'511.5
2017-Aug-14 14:00N 54°54' W 005°41'1019.6
2017-Aug-14 13:30N 54°58' W 005°26'1020.0
2017-Aug-14 13:00N 55°02' W 005°10'612.6
2017-Aug-14 12:30N 54°58' W 005°01'0 0.0
2017-Aug-14 12:00N 54°58' W 005°01'0 0.1
2017-Aug-14 11:31N 54°58' W 005°01'611.4
2017-Aug-14 11:00N 55°01' W 005°09'817.1
2017-Aug-14 10:31N 54°57' W 005°22'917.9
2017-Aug-14 10:00N 54°54' W 005°36'714.8
2017-Aug-14 09:30N 54°51' W 005°48'0 0.1
2017-Aug-14 08:59N 54°51' W 005°48'0 0.0
2017-Aug-14 08:31N 54°51' W 005°48'612.6
2017-Aug-14 08:00N 54°55' W 005°39'1019.7
2017-Aug-14 07:30N 54°59' W 005°23'1215.9
2017-Aug-14 06:46N 54°59' W 005°03'2 5.7
2017-Aug-14 06:28N 54°58' W 005°01'0 0.0
2017-Aug-14 05:58N 54°58' W 005°01'0 0.0
2017-Aug-14 05:28N 54°58' W 005°01'0 0.0
2017-Aug-14 05:00N 54°58' W 005°01'5 9.2
2017-Aug-14 04:28N 55°02' W 005°06'919.9
2017-Aug-14 04:01N 54°58' W 005°21'1019.9
2017-Aug-14 03:31N 54°54' W 005°37'714.1
2017-Aug-14 03:01N 54°51' W 005°48'0 0.1
2017-Aug-14 02:28N 54°51' W 005°48'0 0.0
2017-Aug-14 01:58N 54°51' W 005°48'0 0.0
2017-Aug-14 01:28N 54°51' W 005°48'0 0.0
2017-Aug-14 00:58N 54°51' W 005°48'0 0.0
2017-Aug-14 00:25N 54°51' W 005°48'0 0.1
2017-Aug-14 00:00N 54°51' W 005°48'714.1
2017-Aug-13 23:30N 54°54' W 005°37'917.1
2017-Aug-13 23:00N 54°58' W 005°24'917.9
2017-Aug-13 22:30N 55°02' W 005°09'612.8
2017-Aug-13 22:00N 54°58' W 005°01'0 0.0
2017-Aug-13 21:20N 54°58' W 005°01'0 0.0
2017-Aug-13 20:59N 54°58' W 005°01'6 8.6
2017-Aug-13 20:21N 55°01' W 005°08'719.4
2017-Aug-13 20:01N 54°59' W 005°19'1020.0
2017-Aug-13 19:31N 54°55' W 005°34'917.2
2017-Aug-13 19:00N 54°51' W 005°48'0 0.2
2017-Aug-13 18:30N 54°51' W 005°48'0 0.0
2017-Aug-13 18:00N 54°51' W 005°48'0 0.0
2017-Aug-13 17:30N 54°51' W 005°48'612.6
2017-Aug-13 17:01N 54°54' W 005°39'918.3
2017-Aug-13 16:31N 54°59' W 005°25'917.1
2017-Aug-13 16:01N 55°01' W 005°11'7 7.5
2017-Aug-13 15:07N 54°58' W 005°01'0 0.0
2017-Aug-13 14:43N 54°58' W 005°01'0 0.1
2017-Aug-13 14:25N 54°58' W 005°01'511.6
2017-Aug-13 13:59N 55°02' W 005°07'  
Track history (hours):
 
Tides and Currents Weather Stations Pressure Air Temp Water Temp Dewpoint Dewpoint Depression Visibility Wind Speed Wind Dir Waves Ship Positions

European Highlander

Operator: P&O Irish Sea Ltd

Last reported at 2017-Aug-23 13:31 UTC. Time now 2017-Aug-23 13:37 UTC.
Position N 54°58' W 005°20'.

Length 161 m; draft 5.4 m.

Type: Passenger vessel. MMSI: 311404000.

Date/timePositionNaut miles runAvg speedWind from/ knotsBaromVisibWave heightAir tempDewpointWater temp
2017-Aug-23 13:31N 54°58' W 005°20'1019.0
2017-Aug-23 13:01N 54°54' W 005°36'815.5
2017-Aug-23 12:30N 54°51' W 005°48'0 0.1
2017-Aug-23 12:00N 54°51' W 005°48'0 0.0
2017-Aug-23 11:30N 54°51' W 005°48'510.2
2017-Aug-23 11:00N 54°53' W 005°40'917.5
2017-Aug-23 10:30N 54°58' W 005°27'917.9
2017-Aug-23 10:00N 55°01' W 005°13'713.0
2017-Aug-23 09:30N 54°58' W 005°02'1 1.7
2017-Aug-23 08:58N 54°58' W 005°01'0 0.0
2017-Aug-23 08:28N 54°58' W 005°01'5 8.5
2017-Aug-23 07:54N 55°02' W 005°06'616.4
2017-Aug-23 07:30N 54°59' W 005°17'918.8
2017-Aug-23 07:00N 54°55' W 005°32'1019.6
2017-Aug-23 06:31N 54°52' W 005°47'1 1.8
2017-Aug-23 05:58N 54°51' W 005°48'0 0.0
2017-Aug-23 05:25N 54°51' W 005°48'0 0.0
2017-Aug-23 04:59N 54°51' W 005°48'5 9.9
2017-Aug-23 04:30N 54°54' W 005°41'1019.5
2017-Aug-23 04:01N 54°59' W 005°27'816.6
2017-Aug-23 03:30N 55°02' W 005°13'714.7
2017-Aug-23 03:00N 54°58' W 005°02'1 1.8
2017-Aug-23 02:28N 54°58' W 005°01'0 0.0
2017-Aug-23 01:58N 54°58' W 005°01'0 0.0
2017-Aug-23 01:28N 54°58' W 005°01'0 0.0
2017-Aug-23 00:59N 54°58' W 005°01'5 9.2
2017-Aug-23 00:27N 55°02' W 005°06'818.4
2017-Aug-23 00:00N 54°59' W 005°20'1019.0
2017-Aug-22 23:28N 54°54' W 005°35'816.6
2017-Aug-22 23:00N 54°51' W 005°48'0 0.3
2017-Aug-22 22:28N 54°51' W 005°48'0 0.0
2017-Aug-22 21:58N 54°51' W 005°48'0 0.0
2017-Aug-22 21:28N 54°51' W 005°48'0 0.0
2017-Aug-22 21:00N 54°51' W 005°48'510.2
2017-Aug-22 20:30N 54°54' W 005°41'917.9
2017-Aug-22 20:00N 54°57' W 005°26'918.6
2017-Aug-22 19:30N 55°01' W 005°12'612.9
2017-Aug-22 19:00N 54°58' W 005°02'1 1.0
2017-Aug-22 18:28N 54°58' W 005°01'0 0.0
2017-Aug-22 17:55N 54°58' W 005°01'0 0.1
2017-Aug-22 17:30N 54°58' W 005°01'510.3
2017-Aug-22 17:01N 55°01' W 005°07'816.7
2017-Aug-22 16:30N 54°58' W 005°21'917.2
2017-Aug-22 16:00N 54°55' W 005°35'816.6
2017-Aug-22 15:30N 54°51' W 005°48'1 1.2
2017-Aug-22 14:54N 54°51' W 005°48'0 0.0
2017-Aug-22 14:30N 54°51' W 005°48'4 7.3
2017-Aug-22 14:01N 54°53' W 005°43'917.6
2017-Aug-22 13:31N 54°57' W 005°30'816.9
2017-Aug-22 13:01N 55°01' W 005°16'814.0
2017-Aug-22 12:27N 54°59' W 005°03'2 3.1
2017-Aug-22 11:56N 54°58' W 005°01'0 0.0
2017-Aug-22 11:30N 54°58' W 005°01'510.4
2017-Aug-22 11:00N 55°02' W 005°07'917.3
2017-Aug-22 10:30N 54°58' W 005°20'917.4
2017-Aug-22 10:00N 54°54' W 005°34'816.5
2017-Aug-22 09:30N 54°51' W 005°48'0 0.6
2017-Aug-22 08:58N 54°51' W 005°48'0 0.0
2017-Aug-22 08:30N 54°51' W 005°48'611.3
2017-Aug-22 08:01N 54°55' W 005°41'917.1
2017-Aug-22 07:30N 54°58' W 005°27'918.1
2017-Aug-22 07:01N 55°02' W 005°13'713.9
2017-Aug-22 06:30N 54°58' W 005°02'1 1.9
2017-Aug-22 06:00N 54°58' W 005°01'0 0.0
2017-Aug-22 05:30N 54°58' W 005°01'0 0.0
2017-Aug-22 05:00N 54°58' W 005°01'5 9.7
2017-Aug-22 04:28N 55°02' W 005°07'715.8
2017-Aug-22 04:00N 54°59' W 005°19'918.9
2017-Aug-22 03:30N 54°55' W 005°33'918.2
2017-Aug-22 03:00N 54°51' W 005°48'0 0.7
2017-Aug-22 02:30N 54°51' W 005°48'0 0.0
2017-Aug-22 02:00N 54°51' W 005°48'0 0.0
2017-Aug-22 01:30N 54°51' W 005°48'0 0.0
2017-Aug-22 01:00N 54°51' W 005°48'3 5.8
2017-Aug-22 00:30N 54°53' W 005°44'918.1
2017-Aug-22 00:00N 54°57' W 005°30'817.0
2017-Aug-21 23:30N 55°00' W 005°17'814.5
2017-Aug-21 22:56N 54°59' W 005°03'2 3.5
2017-Aug-21 22:25N 54°58' W 005°01'0 0.0
2017-Aug-21 21:58N 54°58' W 005°01'0 0.0
2017-Aug-21 21:28N 54°58' W 005°01'0 0.1
2017-Aug-21 20:51N 54°58' W 005°01'513.5
2017-Aug-21 20:29N 55°02' W 005°06'817.1
2017-Aug-21 20:00N 54°58' W 005°20'917.4
2017-Aug-21 19:30N 54°54' W 005°33'917.5
2017-Aug-21 19:00N 54°52' W 005°48'1 0.9
2017-Aug-21 18:12N 54°51' W 005°48'0 0.0
2017-Aug-21 18:00N 54°51' W 005°48'0 0.0
2017-Aug-21 17:30N 54°51' W 005°48'5 9.4
2017-Aug-21 17:00N 54°53' W 005°41'817.0
2017-Aug-21 16:30N 54°57' W 005°28'816.7
2017-Aug-21 16:00N 55°01' W 005°15'714.5
2017-Aug-21 15:30N 54°59' W 005°03'1 2.9
2017-Aug-21 15:00N 54°58' W 005°01'0 0.0
2017-Aug-21 14:30N 54°58' W 005°01'5 8.8
2017-Aug-21 13:54N 55°02' W 005°07'820.6
2017-Aug-21 13:30N 54°58' W 005°20'1019.8
2017-Aug-21 13:00N 54°54' W 005°36'815.1
2017-Aug-21 12:31N 54°51' W 005°48'0 0.2
2017-Aug-21 12:00N 54°51' W 005°48'0 0.0
2017-Aug-21 11:30N 54°51' W 005°48'510.5
2017-Aug-21 11:00N 54°54' W 005°40'918.2
2017-Aug-21 10:30N 54°58' W 005°26'918.2
2017-Aug-21 10:00N 55°01' W 005°12'713.7
2017-Aug-21 09:30N 54°58' W 005°01'0 0.0
2017-Aug-21 08:38N 54°58' W 005°01'0 0.0
2017-Aug-21 08:30N 54°58' W 005°01'510.2
2017-Aug-21 08:00N 55°02' W 005°07'918.1
2017-Aug-21 07:30N 54°58' W 005°21'917.2
2017-Aug-21 07:00N 54°55' W 005°35'816.3
2017-Aug-21 06:30N 54°51' W 005°48'0 0.4
2017-Aug-21 05:59N 54°51' W 005°48'0 0.0
2017-Aug-21 05:30N 54°51' W 005°48'0 0.0
2017-Aug-21 05:00N 54°51' W 005°48'4 7.6
2017-Aug-21 04:30N 54°53' W 005°43'917.0
2017-Aug-21 04:00N 54°57' W 005°30'816.7
2017-Aug-21 03:30N 55°01' W 005°17'814.4
2017-Aug-21 02:58N 54°59' W 005°03'2 4.6
2017-Aug-21 02:29N 54°58' W 005°01'0 0.0
2017-Aug-21 01:59N 54°58' W 005°01'0 0.0
2017-Aug-21 01:29N 54°58' W 005°01'0 0.0
2017-Aug-21 00:53N 54°58' W 005°01'0 0.0
2017-Aug-21 00:20N 54°58' W 005°01'0 0.0
2017-Aug-21 00:00N 54°58' W 005°01'5 9.7
2017-Aug-20 23:30N 55°02' W 005°06'1019.8
2017-Aug-20 23:00N 54°57' W 005°22'1019.4
2017-Aug-20 22:30N 54°54' W 005°38'713.3
2017-Aug-20 22:00N 54°51' W 005°48'0 0.1
2017-Aug-20 21:30N 54°51' W 005°48'0 0.0
2017-Aug-20 21:00N 54°51' W 005°48'510.4
2017-Aug-20 20:30N 54°54' W 005°41'816.2
2017-Aug-20 20:00N 54°58' W 005°29'816.4
2017-Aug-20 19:30N 54°60' W 005°15'713.1
2017-Aug-20 19:00N 54°59' W 005°03'2 3.8
2017-Aug-20 18:28N 54°58' W 005°01'0 0.0
2017-Aug-20 17:55N 54°58' W 005°01'0 0.0
2017-Aug-20 17:30N 54°58' W 005°01'510.1
2017-Aug-20 16:58N 55°02' W 005°07'817.0
2017-Aug-20 16:31N 54°59' W 005°20'1020.2
2017-Aug-20 16:01N 54°55' W 005°36'815.2
2017-Aug-20 15:30N 54°51' W 005°48'0 0.1
2017-Aug-20 14:59N 54°51' W 005°48'0 0.0
2017-Aug-20 14:29N 54°51' W 005°48'5 9.5
2017-Aug-20 14:01N 54°53' W 005°41'917.1
2017-Aug-20 13:30N 54°58' W 005°28'816.2
2017-Aug-20 13:00N 55°01' W 005°15'713.9
2017-Aug-20 12:29N 54°59' W 005°03'2 2.7
2017-Aug-20 11:46N 54°58' W 005°01'0 0.0
2017-Aug-20 11:26N 54°58' W 005°01'3 8.1
2017-Aug-20 11:00N 55°01' W 005°04'918.4
2017-Aug-20 10:30N 54°58' W 005°20'1020.3
2017-Aug-20 10:00N 54°54' W 005°36'815.0
2017-Aug-20 09:30N 54°51' W 005°48'0 0.1
2017-Aug-20 09:00N 54°51' W 005°48'0 0.0
2017-Aug-20 08:30N 54°51' W 005°48'4 8.0
2017-Aug-20 08:00N 54°53' W 005°43'1019.6
2017-Aug-20 07:31N 54°58' W 005°27'1019.8
2017-Aug-20 07:01N 55°01' W 005°11'713.2
2017-Aug-20 06:30N 54°58' W 005°01'0 0.3
2017-Aug-20 05:59N 54°58' W 005°01'0 0.0
2017-Aug-20 05:29N 54°58' W 005°01'0 0.0
2017-Aug-20 04:59N 54°58' W 005°01'0 0.0
2017-Aug-20 04:26N 54°58' W 005°01'0 0.0
2017-Aug-20 03:56N 54°58' W 005°01'0 0.0
2017-Aug-20 03:29N 54°58' W 005°01'0 0.0
2017-Aug-20 02:59N 54°58' W 005°01'0 0.0
2017-Aug-20 02:29N 54°58' W 005°01'0 0.0
2017-Aug-20 01:50N 54°58' W 005°01'0 0.0
2017-Aug-20 01:29N 54°58' W 005°01'0 0.0
2017-Aug-20 00:59N 54°58' W 005°01'0 0.0
2017-Aug-20 00:26N 54°58' W 005°01'0 0.0
2017-Aug-19 23:59N 54°58' W 005°01'0 0.0
2017-Aug-19 23:29N 54°58' W 005°01'0 0.0
2017-Aug-19 22:56N 54°58' W 005°01'0 0.0
2017-Aug-19 22:29N 54°58' W 005°01'0 0.0
2017-Aug-19 21:59N 54°58' W 005°01'0 0.0
2017-Aug-19 21:14N 54°58' W 005°01'0 0.0
2017-Aug-19 20:59N 54°58' W 005°01'612.3
2017-Aug-19 20:31N 55°01' W 005°09'1020.0
2017-Aug-19 20:00N 54°56' W 005°24'1121.4
2017-Aug-19 19:31N 54°53' W 005°41'4 8.4
2017-Aug-19 19:01N 54°51' W 005°48'0 0.0
2017-Aug-19 18:30N 54°51' W 005°48'0 0.0
2017-Aug-19 17:54N 54°51' W 005°48'0 0.0
2017-Aug-19 17:30N 54°51' W 005°48'2 4.5
2017-Aug-19 17:00N 54°52' W 005°45'1019.3
2017-Aug-19 16:30N 54°57' W 005°30'1020.9
2017-Aug-19 16:00N 55°01' W 005°13'713.6
2017-Aug-19 15:30N 54°59' W 005°02'1 2.1
2017-Aug-19 15:00N 54°58' W 005°01'5 5.0
2017-Aug-19 14:00N 55°01' W 005°07'917.6
2017-Aug-19 13:30N 54°58' W 005°21'917.8
2017-Aug-19 13:01N 54°55' W 005°35'816.1
2017-Aug-19 12:30N 54°51' W 005°48'0 0.4
2017-Aug-19 12:00N 54°51' W 005°48'0 0.0
2017-Aug-19 11:30N 54°51' W 005°48'3 6.6
2017-Aug-19 11:00N 54°53' W 005°43'1020.4
2017-Aug-19 10:30N 54°57' W 005°28'1019.5
2017-Aug-19 10:00N 55°01' W 005°12'713.3
2017-Aug-19 09:30N 54°58' W 005°02'1 1.1
2017-Aug-19 08:57N 54°58' W 005°01'0 0.0
2017-Aug-19 08:31N 54°58' W 005°01'5 9.4
2017-Aug-19 07:59N 55°02' W 005°06'816.7
2017-Aug-19 07:30N 54°58' W 005°19'816.5
2017-Aug-19 07:00N 54°54' W 005°31'917.9
2017-Aug-19 06:30N 54°52' W 005°46'1 2.8
2017-Aug-19 05:59N 54°51' W 005°48'0 0.0
2017-Aug-19 05:29N 54°51' W 005°48'0 0.0
2017-Aug-19 05:00N 54°51' W 005°48'510.9
2017-Aug-19 04:30N 54°54' W 005°40'1019.2
2017-Aug-19 04:00N 54°58' W 005°25'1019.6
2017-Aug-19 03:30N 55°02' W 005°09'612.3
2017-Aug-19 03:00N 54°58' W 005°01'0 0.0
2017-Aug-19 02:30N 54°58' W 005°01'0 0.0
2017-Aug-19 02:00N 54°58' W 005°01'0 0.0
2017-Aug-19 01:30N 54°58' W 005°01'0 0.0
2017-Aug-19 01:00N 54°58' W 005°01'5 7.7
2017-Aug-19 00:20N 55°01' W 005°07'720.4
2017-Aug-19 00:01N 54°59' W 005°18'1020.3
2017-Aug-18 23:30N 54°55' W 005°34'917.8
2017-Aug-18 23:00N 54°51' W 005°48'0 0.2
2017-Aug-18 22:23N 54°51' W 005°48'0 0.0
2017-Aug-18 21:59N 54°51' W 005°48'0 0.0
2017-Aug-18 21:29N 54°51' W 005°48'0 0.0
2017-Aug-18 20:59N 54°51' W 005°48'5 9.5
2017-Aug-18 20:30N 54°53' W 005°41'917.1
2017-Aug-18 20:00N 54°57' W 005°28'816.7
2017-Aug-18 19:30N 55°00' W 005°15'713.0
2017-Aug-18 18:59N 54°59' W 005°03'2 3.8
2017-Aug-18 18:29N 54°58' W 005°01'0 0.0
2017-Aug-18 18:00N 54°58' W 005°01'0 0.0
2017-Aug-18 17:30N 54°58' W 005°01'5 9.8
2017-Aug-18 16:59N 55°01' W 005°07'817.1
2017-Aug-18 16:30N 54°58' W 005°20'918.5
2017-Aug-18 16:01N 54°55' W 005°35'816.8
2017-Aug-18 15:31N 54°51' W 005°48'0 0.3
2017-Aug-18 15:00N 54°51' W 005°48'6 6.3
2017-Aug-18 14:01N 54°54' W 005°39'917.2
2017-Aug-18 13:31N 54°58' W 005°25'816.6
2017-Aug-18 13:01N 55°01' W 005°12'713.3
2017-Aug-18 12:29N 54°58' W 005°01'0 0.3
2017-Aug-18 11:54N 54°58' W 005°01'0 0.0
2017-Aug-18 11:30N 54°58' W 005°01'5 9.1
2017-Aug-18 10:57N 55°02' W 005°06'818.0
2017-Aug-18 10:30N 54°59' W 005°19'917.7
2017-Aug-18 10:00N 54°55' W 005°33'917.3
2017-Aug-18 09:30N 54°52' W 005°47'1 1.6
2017-Aug-18 08:57N 54°51' W 005°48'0 0.0
2017-Aug-18 08:27N 54°51' W 005°48'4 8.0
2017-Aug-18 08:01N 54°53' W 005°43'917.3
2017-Aug-18 07:30N 54°57' W 005°29'917.1
2017-Aug-18 07:00N 55°00' W 005°16'713.6
2017-Aug-18 06:27N 54°59' W 005°03'2 3.8
2017-Aug-18 06:00N 54°58' W 005°01'0 0.0
2017-Aug-18 05:30N 54°58' W 005°01'0 0.0
2017-Aug-18 05:00N 54°58' W 005°01'5 8.1
2017-Aug-18 04:23N 55°02' W 005°06'616.9
2017-Aug-18 04:01N 54°59' W 005°17'918.2
2017-Aug-18 03:31N 54°55' W 005°31'918.6
2017-Aug-18 03:00N 54°52' W 005°47'1 2.6
2017-Aug-18 02:27N 54°51' W 005°48'0 0.0
2017-Aug-18 02:00N 54°51' W 005°48'0 0.0
2017-Aug-18 01:30N 54°51' W 005°48'0 0.0
2017-Aug-18 01:01N 54°51' W 005°48'611.3
2017-Aug-18 00:31N 54°54' W 005°40'816.8
2017-Aug-18 00:01N 54°58' W 005°27'816.7
2017-Aug-17 23:31N 55°01' W 005°13'714.3
2017-Aug-17 23:01N 54°58' W 005°02'1 1.5
2017-Aug-17 22:26N 54°58' W 005°01'0 0.0
2017-Aug-17 21:56N 54°58' W 005°01'0 0.0
2017-Aug-17 21:26N 54°58' W 005°01'0 0.0
2017-Aug-17 20:55N 54°58' W 005°01'5 9.9
2017-Aug-17 20:25N 55°02' W 005°06'818.7
2017-Aug-17 20:00N 54°60' W 005°19'1019.8
2017-Aug-17 19:30N 54°55' W 005°35'916.2
2017-Aug-17 18:59N 54°51' W 005°48'0 0.4
2017-Aug-17 18:30N 54°51' W 005°48'0 0.0
2017-Aug-17 18:00N 54°51' W 005°48'0 0.0
2017-Aug-17 17:30N 54°51' W 005°48'611.9
2017-Aug-17 17:00N 54°54' W 005°39'1019.9
2017-Aug-17 16:30N 54°58' W 005°24'1020.2
2017-Aug-17 16:00N 55°02' W 005°07'510.2
2017-Aug-17 15:30N 54°58' W 005°01'0 0.0
2017-Aug-17 15:00N 54°58' W 005°01'0 0.0
2017-Aug-17 14:30N 54°58' W 005°01'4 7.6
2017-Aug-17 14:01N 55°01' W 005°05'918.4
2017-Aug-17 13:31N 54°58' W 005°20'1020.7
2017-Aug-17 13:01N 54°54' W 005°36'714.4
2017-Aug-17 12:30N 54°51' W 005°48'0 0.0
2017-Aug-17 11:53N 54°51' W 005°48'0 0.0
2017-Aug-17 11:30N 54°51' W 005°48'510.8
2017-Aug-17 11:00N 54°54' W 005°40'917.7
2017-Aug-17 10:30N 54°58' W 005°26'917.0
2017-Aug-17 10:00N 55°01' W 005°12'713.9
2017-Aug-17 09:30N 54°58' W 005°02'1 0.9
2017-Aug-17 08:49N 54°58' W 005°01'0 0.0
2017-Aug-17 08:30N 54°58' W 005°01'5 9.5
2017-Aug-17 07:59N 55°02' W 005°06'817.6
2017-Aug-17 07:30N 54°58' W 005°20'917.1
2017-Aug-17 07:00N 54°54' W 005°33'917.3
2017-Aug-17 06:31N 54°52' W 005°47'1 1.9
2017-Aug-17 05:59N 54°51' W 005°48'0 0.0
2017-Aug-17 05:29N 54°51' W 005°48'0 0.0
2017-Aug-17 05:01N 54°51' W 005°48'612.4
2017-Aug-17 04:30N 54°54' W 005°39'816.9
2017-Aug-17 04:00N 54°58' W 005°25'917.5
2017-Aug-17 03:30N 55°01' W 005°11'713.2
2017-Aug-17 03:00N 54°58' W 005°01'0 0.7
2017-Aug-17 02:30N 54°58' W 005°01'0 0.0
2017-Aug-17 02:00N 54°58' W 005°01'0 0.0
2017-Aug-17 01:30N 54°58' W 005°01'0 0.0
2017-Aug-17 01:00N 54°58' W 005°01'5 7.7
2017-Aug-17 00:22N 55°01' W 005°06'617.5
2017-Aug-17 00:00N 54°59' W 005°16'1020.0
2017-Aug-16 23:30N 54°55' W 005°32'919.1
2017-Aug-16 23:01N 54°52' W 005°48'1 1.4
2017-Aug-16 22:30N 54°51' W 005°48'0 0.0
2017-Aug-16 22:00N 54°51' W 005°48'0 0.0
2017-Aug-16 21:30N 54°51' W 005°48'0 0.0
2017-Aug-16 21:00N 54°51' W 005°48'4 8.5
2017-Aug-16 20:30N 54°53' W 005°42'1019.6
2017-Aug-16 20:01N 54°58' W 005°27'918.5
2017-Aug-16 19:31N 55°01' W 005°12'713.0
2017-Aug-16 19:00N 54°58' W 005°02'1 1.6
2017-Aug-16 18:28N 54°58' W 005°01'0 0.0
2017-Aug-16 17:55N 54°58' W 005°01'0 0.0
2017-Aug-16 17:30N 54°58' W 005°01'5 9.9
2017-Aug-16 17:00N 55°02' W 005°06'1019.7
2017-Aug-16 16:30N 54°57' W 005°21'1019.8
2017-Aug-16 16:00N 54°54' W 005°37'713.3
2017-Aug-16 15:30N 54°51' W 005°48'0 0.0
2017-Aug-16 14:53N 54°51' W 005°48'0 0.0
2017-Aug-16 14:23N 54°51' W 005°48'3 7.8
2017-Aug-16 14:00N 54°53' W 005°44'1019.2
2017-Aug-16 13:31N 54°57' W 005°29'1019.5
2017-Aug-16 13:00N 55°01' W 005°13'713.9
2017-Aug-16 12:30N 54°58' W 005°02'1 1.8
2017-Aug-16 12:00N 54°58' W 005°01'0 0.0
2017-Aug-16 11:30N 54°58' W 005°01'5 8.7
2017-Aug-16 10:56N 55°02' W 005°06'921.2
2017-Aug-16 10:30N 54°58' W 005°21'1020.6
2017-Aug-16 10:00N 54°53' W 005°37'713.4
2017-Aug-16 09:30N 54°51' W 005°48'0 0.0
2017-Aug-16 09:00N 54°51' W 005°48'0 0.0
2017-Aug-16 08:30N 54°51' W 005°48'4 8.2
2017-Aug-16 08:01N 54°53' W 005°42'917.5
2017-Aug-16 07:30N 54°57' W 005°29'917.2
2017-Aug-16 07:01N 55°01' W 005°15'714.1
2017-Aug-16 06:31N 54°59' W 005°03'2 3.5
2017-Aug-16 05:58N 54°58' W 005°01'0 0.0
2017-Aug-16 05:28N 54°58' W 005°01'0 0.0
2017-Aug-16 05:01N 54°58' W 005°01'5 9.8
2017-Aug-16 04:30N 55°02' W 005°06'815.6
2017-Aug-16 04:01N 54°59' W 005°19'917.5
2017-Aug-16 03:31N 54°55' W 005°32'917.9
2017-Aug-16 03:00N 54°52' W 005°47'1 2.2
2017-Aug-16 02:29N 54°51' W 005°48'0 0.0
2017-Aug-16 01:59N 54°51' W 005°48'0 0.0
2017-Aug-16 01:29N 54°51' W 005°48'0 0.0
2017-Aug-16 01:00N 54°51' W 005°48'5 9.4
2017-Aug-16 00:30N 54°53' W 005°41'816.7
2017-Aug-16 00:00N 54°57' W 005°28'816.7
2017-Aug-15 23:30N 55°01' W 005°15'713.9
2017-Aug-15 23:00N 54°59' W 005°03'2 3.8
2017-Aug-15 22:28N 54°58' W 005°01'0 0.0
2017-Aug-15 21:58N 54°58' W 005°01'0 0.0
2017-Aug-15 21:28N 54°58' W 005°01'0 0.0
2017-Aug-15 21:00N 54°58' W 005°01'5 9.4
2017-Aug-15 20:28N 55°02' W 005°07'817.5
2017-Aug-15 20:00N 54°59' W 005°20'917.4
2017-Aug-15 19:31N 54°55' W 005°33'816.8
2017-Aug-15 19:00N 54°52' W 005°47'1 2.3
2017-Aug-15 18:30N 54°51' W 005°48'0 0.0
2017-Aug-15 18:00N 54°51' W 005°48'0 0.0
2017-Aug-15 17:30N 54°51' W 005°48'4 7.6
2017-Aug-15 17:01N 54°53' W 005°43'918.3
2017-Aug-15 16:31N 54°57' W 005°28'918.3
2017-Aug-15 16:01N 55°01' W 005°14'713.9
2017-Aug-15 15:31N 54°59' W 005°02'1 1.9
2017-Aug-15 14:55N 54°58' W 005°01'0 0.0
2017-Aug-15 14:25N 54°58' W 005°01'510.0
2017-Aug-15 13:55N 55°02' W 005°06'819.3
2017-Aug-15 13:30N 54°58' W 005°19'1020.7
2017-Aug-15 13:00N 54°54' W 005°35'815.6
2017-Aug-15 12:31N 54°51' W 005°48'0 0.2
2017-Aug-15 11:56N 54°51' W 005°48'0 0.0
2017-Aug-15 11:30N 54°51' W 005°48'611.3
2017-Aug-15 11:00N 54°54' W 005°40'917.2
2017-Aug-15 10:30N 54°58' W 005°26'917.4
2017-Aug-15 10:00N 55°01' W 005°12'713.5
2017-Aug-15 09:30N 54°58' W 005°02'1 1.5
2017-Aug-15 09:00N 54°58' W 005°01'0 0.0
2017-Aug-15 08:30N 54°58' W 005°01'5 8.1
2017-Aug-15 07:53N 55°02' W 005°07'717.9
2017-Aug-15 07:30N 54°59' W 005°18'918.0
2017-Aug-15 07:00N 54°56' W 005°32'917.4
2017-Aug-15 06:29N 54°52' W 005°47'2 3.1
2017-Aug-15 06:00N 54°51' W 005°48'0 0.0
2017-Aug-15 05:30N 54°51' W 005°48'0 0.0
2017-Aug-15 05:01N 54°51' W 005°48'612.0
2017-Aug-15 04:30N 54°54' W 005°39'1020.2
2017-Aug-15 04:00N 54°59' W 005°24'918.6
2017-Aug-15 03:30N 55°02' W 005°08'610.0
2017-Aug-15 02:56N 54°58' W 005°01'0 0.0
2017-Aug-15 02:20N 54°58' W 005°01'0 0.0
2017-Aug-15 01:50N 54°58' W 005°01'0 0.0
2017-Aug-15 01:29N 54°58' W 005°01'0 0.0
2017-Aug-15 00:59N 54°58' W 005°01'5 9.0
2017-Aug-15 00:26N 55°02' W 005°06'819.1
2017-Aug-15 00:00N 54°59' W 005°20'1020.3
2017-Aug-14 23:30N 54°54' W 005°36'813.3
2017-Aug-14 22:56N 54°51' W 005°48'0 0.0
2017-Aug-14 22:29N 54°51' W 005°48'0 0.0
2017-Aug-14 21:56N 54°51' W 005°48'0 0.0
2017-Aug-14 21:29N 54°51' W 005°48'0 0.0
2017-Aug-14 20:59N 54°51' W 005°48'4 8.8
2017-Aug-14 20:31N 54°53' W 005°42'917.6
2017-Aug-14 20:01N 54°57' W 005°28'815.6
2017-Aug-14 19:31N 55°00' W 005°16'813.0
2017-Aug-14 18:56N 54°59' W 005°03'2 4.3
2017-Aug-14 18:30N 54°58' W 005°01'0 0.0
2017-Aug-14 18:00N 54°58' W 005°01'0 0.0
2017-Aug-14 17:30N 54°58' W 005°01'5 8.4
2017-Aug-14 16:55N 55°02' W 005°06'819.9
2017-Aug-14 16:30N 54°60' W 005°20'1019.5
2017-Aug-14 16:01N 54°56' W 005°36'816.7
2017-Aug-14 15:30N 54°51' W 005°48'0 0.4
2017-Aug-14 14:55N 54°51' W 005°48'0 0.0
2017-Aug-14 14:25N 54°51' W 005°48'511.5
2017-Aug-14 14:00N 54°54' W 005°41'1019.6
2017-Aug-14 13:30N 54°58' W 005°26'1020.0
2017-Aug-14 13:00N 55°02' W 005°10'612.6
2017-Aug-14 12:30N 54°58' W 005°01'0 0.0
2017-Aug-14 12:00N 54°58' W 005°01'0 0.1
2017-Aug-14 11:31N 54°58' W 005°01'611.4
2017-Aug-14 11:00N 55°01' W 005°09'817.1
2017-Aug-14 10:31N 54°57' W 005°22'917.9
2017-Aug-14 10:00N 54°54' W 005°36'714.8
2017-Aug-14 09:30N 54°51' W 005°48'0 0.1
2017-Aug-14 08:59N 54°51' W 005°48'0 0.0
2017-Aug-14 08:31N 54°51' W 005°48'612.6
2017-Aug-14 08:00N 54°55' W 005°39'1019.7
2017-Aug-14 07:30N 54°59' W 005°23'1215.9
2017-Aug-14 06:46N 54°59' W 005°03'2 5.7
2017-Aug-14 06:28N 54°58' W 005°01'0 0.0
2017-Aug-14 05:58N 54°58' W 005°01'0 0.0
2017-Aug-14 05:28N 54°58' W 005°01'0 0.0
2017-Aug-14 05:00N 54°58' W 005°01'5 9.2
2017-Aug-14 04:28N 55°02' W 005°06'919.9
2017-Aug-14 04:01N 54°58' W 005°21'1019.9
2017-Aug-14 03:31N 54°54' W 005°37'714.1
2017-Aug-14 03:01N 54°51' W 005°48'0 0.1
2017-Aug-14 02:28N 54°51' W 005°48'0 0.0
2017-Aug-14 01:58N 54°51' W 005°48'0 0.0
2017-Aug-14 01:28N 54°51' W 005°48'0 0.0
2017-Aug-14 00:58N 54°51' W 005°48'0 0.0
2017-Aug-14 00:25N 54°51' W 005°48'0 0.1
2017-Aug-14 00:00N 54°51' W 005°48'714.1
2017-Aug-13 23:30N 54°54' W 005°37'917.1
2017-Aug-13 23:00N 54°58' W 005°24'917.9
2017-Aug-13 22:30N 55°02' W 005°09'612.8
2017-Aug-13 22:00N 54°58' W 005°01'0 0.0
2017-Aug-13 21:20N 54°58' W 005°01'0 0.0
2017-Aug-13 20:59N 54°58' W 005°01'6 8.6
2017-Aug-13 20:21N 55°01' W 005°08'719.4
2017-Aug-13 20:01N 54°59' W 005°19'1020.0
2017-Aug-13 19:31N 54°55' W 005°34'917.2
2017-Aug-13 19:00N 54°51' W 005°48'0 0.2
2017-Aug-13 18:30N 54°51' W 005°48'0 0.0
2017-Aug-13 18:00N 54°51' W 005°48'0 0.0
2017-Aug-13 17:30N 54°51' W 005°48'612.6
2017-Aug-13 17:01N 54°54' W 005°39'918.3
2017-Aug-13 16:31N 54°59' W 005°25'917.1
2017-Aug-13 16:01N 55°01' W 005°11'7 7.5
2017-Aug-13 15:07N 54°58' W 005°01'0 0.0
2017-Aug-13 14:43N 54°58' W 005°01'0 0.1
2017-Aug-13 14:25N 54°58' W 005°01'511.6
2017-Aug-13 13:59N 55°02' W 005°07'  

Dump ship's entire track history